Time,TemperatureF,DewpointF,PressureIn,WindDirection,WindDirectionDegrees,WindSpeedMPH,WindSpeedGustMPH,Humidity,HourlyPrecipIn,Conditions,Clouds,dailyrainin,SoftwareType,DateUTC
2015-09-02 00:02:00,61.3,58.6,30.08,West,261,0.0,0.0,91,0.00,,,0.00,meteohub,2015-09-02 04:02:00,
2015-09-02 00:07:00,61.3,58.6,30.07,West,261,0.0,0.0,91,0.00,,,0.00,meteohub,2015-09-02 04:07:00,
2015-09-02 00:12:00,61.3,59.0,30.08,West,261,0.0,0.0,92,0.00,,,0.00,meteohub,2015-09-02 04:12:00,
2015-09-02 00:17:00,61.3,58.6,30.07,West,261,0.0,0.0,91,0.00,,,0.00,meteohub,2015-09-02 04:17:00,
2015-09-02 00:22:00,61.2,58.8,30.08,West,261,0.0,0.0,92,0.00,,,0.00,meteohub,2015-09-02 04:22:00,
2015-09-02 00:27:00,61.3,58.6,30.08,West,261,0.0,0.0,91,0.00,,,0.00,meteohub,2015-09-02 04:27:00,
2015-09-02 00:32:00,61.3,58.6,30.08,West,261,0.0,0.0,91,0.00,,,0.00,meteohub,2015-09-02 04:32:00,
2015-09-02 00:37:00,61.3,59.0,30.08,West,261,0.0,0.0,92,0.00,,,0.00,meteohub,2015-09-02 04:37:00,
2015-09-02 00:42:00,61.3,59.0,30.08,West,261,0.0,0.0,92,0.00,,,0.00,meteohub,2015-09-02 04:42:00,
2015-09-02 00:47:00,61.3,59.0,30.08,West,261,0.0,0.0,92,0.00,,,0.00,meteohub,2015-09-02 04:47:00,
2015-09-02 00:52:00,61.3,59.0,30.08,West,261,0.0,0.0,92,0.00,,,0.00,meteohub,2015-09-02 04:52:00,
2015-09-02 00:57:00,61.3,59.0,30.08,West,261,0.0,0.0,92,0.00,,,0.00,meteohub,2015-09-02 04:57:00,
2015-09-02 01:02:00,61.2,58.8,30.08,West,261,0.0,0.0,92,0.00,,,0.00,meteohub,2015-09-02 05:02:00,
2015-09-02 01:07:00,61.2,58.8,30.07,West,261,0.0,0.0,92,0.00,,,0.00,meteohub,2015-09-02 05:07:00,
2015-09-02 01:12:00,61.0,58.6,30.07,West,261,0.0,0.0,92,0.00,,,0.00,meteohub,2015-09-02 05:12:00,
2015-09-02 01:17:00,61.0,58.6,30.07,West,261,0.0,0.0,92,0.00,,,0.00,meteohub,2015-09-02 05:17:00,
2015-09-02 01:22:00,61.2,58.8,30.07,West,261,0.0,0.0,92,0.00,,,0.00,meteohub,2015-09-02 05:22:00,
2015-09-02 01:27:00,61.0,58.6,30.07,West,261,0.0,0.0,92,0.00,,,0.00,meteohub,2015-09-02 05:27:00,
2015-09-02 01:32:00,60.8,58.5,30.07,West,261,0.0,0.0,92,0.00,,,0.00,meteohub,2015-09-02 05:32:00,
2015-09-02 01:37:00,61.0,58.6,30.07,West,261,0.0,0.0,92,0.00,,,0.00,meteohub,2015-09-02 05:37:00,
2015-09-02 01:42:00,61.2,58.8,30.07,West,261,0.0,0.0,92,0.00,,,0.00,meteohub,2015-09-02 05:42:00,
2015-09-02 01:47:00,61.2,58.8,30.07,West,261,0.0,0.0,92,0.00,,,0.00,meteohub,2015-09-02 05:47:00,
2015-09-02 01:52:00,61.3,59.0,30.07,West,261,0.0,0.0,92,0.00,,,0.00,meteohub,2015-09-02 05:52:00,
2015-09-02 01:57:00,61.2,58.8,30.07,West,261,0.0,0.0,92,0.00,,,0.00,meteohub,2015-09-02 05:57:00,
2015-09-02 02:02:00,61.2,58.8,30.07,West,261,0.0,0.0,92,0.00,,,0.00,meteohub,2015-09-02 06:02:00,
2015-09-02 02:07:00,61.2,58.8,30.06,West,261,0.0,0.0,92,0.00,,,0.00,meteohub,2015-09-02 06:07:00,
2015-09-02 02:12:00,61.3,59.0,30.06,West,261,0.0,0.0,92,0.00,,,0.00,meteohub,2015-09-02 06:12:00,
2015-09-02 02:17:00,61.3,59.0,30.06,West,261,0.0,0.0,92,0.00,,,0.00,meteohub,2015-09-02 06:17:00,
2015-09-02 02:22:00,61.3,58.6,30.06,West,261,0.0,0.0,91,0.00,,,0.00,meteohub,2015-09-02 06:22:00,
2015-09-02 02:32:00,61.9,59.5,30.06,West,261,0.0,0.0,92,0.00,,,0.00,meteohub,2015-09-02 06:32:00,
2015-09-02 02:37:00,61.7,59.4,30.06,West,261,0.0,0.0,92,0.00,,,0.00,meteohub,2015-09-02 06:37:00,
2015-09-02 02:42:00,61.5,59.2,30.06,West,261,0.0,0.0,92,0.00,,,0.00,meteohub,2015-09-02 06:42:00,
2015-09-02 02:47:00,61.5,59.2,30.06,West,261,0.0,0.0,92,0.00,,,0.00,meteohub,2015-09-02 06:47:00,
2015-09-02 02:52:00,61.3,59.0,30.06,West,261,0.0,0.0,92,0.00,,,0.00,meteohub,2015-09-02 06:52:00,
2015-09-02 02:57:00,61.3,59.0,30.06,West,261,0.0,0.0,92,0.00,,,0.00,meteohub,2015-09-02 06:57:00,
2015-09-02 03:02:00,61.3,59.0,30.06,West,261,0.0,0.0,92,0.00,,,0.00,meteohub,2015-09-02 07:02:00,
2015-09-02 03:07:00,61.2,58.8,30.06,West,261,0.0,0.0,92,0.00,,,0.00,meteohub,2015-09-02 07:07:00,
2015-09-02 03:12:00,61.2,58.8,30.06,West,261,0.0,0.0,92,0.00,,,0.00,meteohub,2015-09-02 07:12:00,
2015-09-02 03:17:00,61.2,58.8,30.06,West,261,0.0,0.0,92,0.00,,,0.00,meteohub,2015-09-02 07:17:00,
2015-09-02 03:22:00,61.2,58.8,30.06,West,261,0.0,0.0,92,0.00,,,0.00,meteohub,2015-09-02 07:22:00,
2015-09-02 03:27:00,61.2,58.8,30.06,West,261,0.0,0.0,92,0.00,,,0.00,meteohub,2015-09-02 07:27:00,
2015-09-02 03:32:00,61.3,58.6,30.05,West,261,0.0,0.0,91,0.00,,,0.00,meteohub,2015-09-02 07:32:00,
2015-09-02 03:37:00,61.7,59.4,30.06,West,261,0.0,0.0,92,0.00,,,0.00,meteohub,2015-09-02 07:37:00,
2015-09-02 03:42:00,62.2,59.9,30.05,West,261,0.0,1.0,92,0.00,,,0.00,meteohub,2015-09-02 07:42:00,
2015-09-02 03:47:00,62.2,59.9,30.05,West,261,0.0,1.0,92,0.00,,,0.00,meteohub,2015-09-02 07:47:00,
2015-09-02 03:52:00,62.2,59.9,30.05,West,261,0.0,1.0,92,0.00,,,0.00,meteohub,2015-09-02 07:52:00,
2015-09-02 03:57:00,62.1,59.7,30.05,West,261,0.0,1.0,92,0.00,,,0.00,meteohub,2015-09-02 07:57:00,
2015-09-02 04:02:00,62.1,59.7,30.05,West,261,0.0,0.0,92,0.00,,,0.00,meteohub,2015-09-02 08:02:00,
2015-09-02 04:07:00,61.9,59.5,30.04,West,261,0.0,0.0,92,0.00,,,0.00,meteohub,2015-09-02 08:07:00,
2015-09-02 04:12:00,62.2,59.9,30.05,West,261,0.0,0.0,92,0.00,,,0.00,meteohub,2015-09-02 08:12:00,
2015-09-02 04:17:00,62.8,60.1,30.05,West,261,0.0,0.0,91,0.00,,,0.00,meteohub,2015-09-02 08:17:00,
2015-09-02 04:22:00,63.0,60.6,30.05,West,261,0.0,1.0,92,0.00,,,0.00,meteohub,2015-09-02 08:22:00,
2015-09-02 04:27:00,63.1,60.8,30.05,West,261,0.0,1.0,92,0.00,,,0.00,meteohub,2015-09-02 08:27:00,
2015-09-02 04:32:00,63.9,61.5,30.05,West,261,0.0,2.0,92,0.00,,,0.00,meteohub,2015-09-02 08:32:00,
2015-09-02 04:37:00,64.0,61.3,30.04,West,261,0.0,2.0,91,0.00,,,0.00,meteohub,2015-09-02 08:37:00,
2015-09-02 04:42:00,64.2,61.9,30.04,West,261,0.0,2.0,92,0.00,,,0.00,meteohub,2015-09-02 08:42:00,
2015-09-02 04:47:00,63.9,61.5,30.04,West,261,0.0,2.0,92,0.00,,,0.00,meteohub,2015-09-02 08:47:00,
2015-09-02 04:52:00,63.3,61.0,30.04,West,261,0.0,1.0,92,0.00,,,0.00,meteohub,2015-09-02 08:52:00,
2015-09-02 04:57:00,63.1,60.8,30.04,West,261,0.0,0.0,92,0.00,,,0.00,meteohub,2015-09-02 08:57:00,
2015-09-02 05:02:00,63.3,60.6,30.04,West,261,0.0,0.0,91,0.00,,,0.00,meteohub,2015-09-02 09:02:00,
2015-09-02 05:07:00,63.1,60.8,30.04,West,261,0.0,0.0,92,0.00,,,0.00,meteohub,2015-09-02 09:07:00,
2015-09-02 05:12:00,63.1,60.8,30.04,West,261,0.0,0.0,92,0.00,,,0.00,meteohub,2015-09-02 09:12:00,
2015-09-02 05:17:00,63.1,60.8,30.04,West,261,0.0,0.0,92,0.00,,,0.00,meteohub,2015-09-02 09:17:00,
2015-09-02 05:22:00,63.0,60.6,30.05,West,261,0.0,0.0,92,0.00,,,0.00,meteohub,2015-09-02 09:22:00,
2015-09-02 05:27:00,63.0,60.6,30.05,West,261,0.0,0.0,92,0.00,,,0.00,meteohub,2015-09-02 09:27:00,
2015-09-02 05:32:00,62.8,60.4,30.04,West,261,0.0,0.0,92,0.00,,,0.00,meteohub,2015-09-02 09:32:00,
2015-09-02 05:37:00,62.8,60.4,30.04,West,261,0.0,0.0,92,0.00,,,0.00,meteohub,2015-09-02 09:37:00,
2015-09-02 05:42:00,62.4,60.1,30.05,West,261,0.0,0.0,92,0.00,,,0.00,meteohub,2015-09-02 09:42:00,
2015-09-02 05:47:00,63.0,60.6,30.04,West,261,0.0,0.0,92,0.00,,,0.00,meteohub,2015-09-02 09:47:00,
2015-09-02 05:52:00,63.1,60.8,30.05,West,261,0.0,0.0,92,0.00,,,0.00,meteohub,2015-09-02 09:52:00,
2015-09-02 05:57:00,63.3,60.6,30.05,West,261,0.0,0.0,91,0.00,,,0.00,meteohub,2015-09-02 09:57:00,
2015-09-02 06:02:00,63.1,60.8,30.05,West,261,0.0,0.0,92,0.00,,,0.00,meteohub,2015-09-02 10:02:00,
2015-09-02 06:07:00,63.1,60.8,30.04,West,261,0.0,0.0,92,0.00,,,0.00,meteohub,2015-09-02 10:07:00,
2015-09-02 06:12:00,63.0,60.6,30.04,West,261,0.0,0.0,92,0.00,,,0.00,meteohub,2015-09-02 10:12:00,
2015-09-02 06:17:00,63.0,60.6,30.04,West,261,0.0,0.0,92,0.00,,,0.00,meteohub,2015-09-02 10:17:00,
2015-09-02 06:22:00,62.8,60.4,30.04,West,261,0.0,0.0,92,0.00,,,0.00,meteohub,2015-09-02 10:22:00,
2015-09-02 06:27:00,62.8,60.4,30.04,West,261,0.0,0.0,92,0.00,,,0.00,meteohub,2015-09-02 10:27:00,
2015-09-02 06:32:00,63.0,60.6,30.04,West,261,0.0,0.0,92,0.00,,,0.00,meteohub,2015-09-02 10:32:00,
2015-09-02 06:37:00,63.1,60.8,30.04,West,261,0.0,0.0,92,0.00,,,0.00,meteohub,2015-09-02 10:37:00,
2015-09-02 06:42:00,63.1,60.8,30.04,West,261,0.0,0.0,92,0.00,,,0.00,meteohub,2015-09-02 10:42:00,
2015-09-02 06:47:00,63.3,60.6,30.04,West,261,0.0,0.0,91,0.00,,,0.00,meteohub,2015-09-02 10:47:00,
2015-09-02 06:52:00,63.9,61.5,30.04,West,261,0.0,0.0,92,0.00,,,0.00,meteohub,2015-09-02 10:52:00,
2015-09-02 06:57:00,64.2,61.9,30.04,West,261,0.0,0.0,92,0.00,,,0.00,meteohub,2015-09-02 10:57:00,
2015-09-02 07:02:00,64.9,62.6,30.04,West,261,0.0,2.0,92,0.00,,,0.00,meteohub,2015-09-02 11:02:00,
2015-09-02 07:07:00,65.1,62.8,30.04,West,261,1.0,2.0,92,0.00,,,0.00,meteohub,2015-09-02 11:07:00,
2015-09-02 07:12:00,66.2,63.9,30.05,West,263,2.0,3.0,92,0.00,,,0.00,meteohub,2015-09-02 11:12:00,
2015-09-02 07:17:00,66.7,64.4,30.05,NW,318,2.0,3.0,92,0.00,,,0.00,meteohub,2015-09-02 11:17:00,
2015-09-02 07:22:00,67.3,64.9,30.04,NW,323,3.0,4.0,92,0.00,,,0.00,meteohub,2015-09-02 11:22:00,
2015-09-02 07:27:00,67.6,65.3,30.05,NW,321,1.0,4.0,92,0.00,,,0.00,meteohub,2015-09-02 11:27:00,
2015-09-02 07:32:00,67.8,65.5,30.04,NW,317,2.0,5.0,92,0.00,,,0.00,meteohub,2015-09-02 11:32:00,
2015-09-02 07:37:00,68.2,65.8,30.04,NW,313,3.0,5.0,92,0.00,,,0.00,meteohub,2015-09-02 11:37:00,
2015-09-02 07:42:00,68.4,65.7,30.04,NW,323,2.0,6.0,91,0.00,,,0.00,meteohub,2015-09-02 11:42:00,
2015-09-02 07:47:00,68.5,66.2,30.04,WNW,300,3.0,6.0,92,0.00,,,0.00,meteohub,2015-09-02 11:47:00,
2015-09-02 07:52:00,68.7,66.4,30.04,NW,321,3.0,6.0,92,0.00,,,0.00,meteohub,2015-09-02 11:52:00,
2015-09-02 07:57:00,69.1,66.4,30.04,NNW,327,4.0,7.0,91,0.00,,,0.00,meteohub,2015-09-02 11:57:00,
2015-09-02 08:02:00,69.3,66.9,30.04,NW,317,2.0,7.0,92,0.00,,,0.00,meteohub,2015-09-02 12:02:00,
2015-09-02 08:07:00,69.4,67.1,30.04,NW,321,5.0,7.0,92,0.00,,,0.00,meteohub,2015-09-02 12:07:00,
2015-09-02 08:12:00,69.4,66.7,30.04,NNW,344,4.0,8.0,91,0.00,,,0.00,meteohub,2015-09-02 12:12:00,
2015-09-02 08:17:00,69.6,66.9,30.04,WNW,292,5.0,8.0,91,0.00,,,0.00,meteohub,2015-09-02 12:17:00,
2015-09-02 08:22:00,69.8,67.1,30.04,WNW,288,3.0,7.0,91,0.00,,,0.00,meteohub,2015-09-02 12:22:00,
2015-09-02 08:27:00,70.2,67.5,30.04,NW,311,3.0,7.0,91,0.00,,,0.00,meteohub,2015-09-02 12:27:00,
2015-09-02 08:37:00,70.5,67.8,30.04,WNW,294,3.0,9.0,91,0.00,,,0.00,meteohub,2015-09-02 12:37:00,
2015-09-02 08:42:00,70.7,68.2,30.04,WNW,303,5.0,9.0,92,0.00,,,0.00,meteohub,2015-09-02 12:42:00,
2015-09-02 08:47:00,71.2,68.7,30.04,WNW,284,7.0,9.0,92,0.00,,,0.00,meteohub,2015-09-02 12:47:00,
2015-09-02 08:52:00,71.8,69.3,30.04,WNW,291,3.0,9.0,92,0.00,,,0.00,meteohub,2015-09-02 12:52:00,
2015-09-02 08:57:00,72.1,69.4,30.04,NW,311,5.0,9.0,91,0.00,,,0.00,meteohub,2015-09-02 12:57:00,
2015-09-02 09:02:00,72.7,69.6,30.04,WNW,300,5.0,9.0,90,0.00,,,0.00,meteohub,2015-09-02 13:02:00,
2015-09-02 09:07:00,73.0,69.3,30.04,WNW,291,7.0,9.0,88,0.00,,,0.00,meteohub,2015-09-02 13:07:00,
2015-09-02 09:12:00,73.6,69.8,30.04,NW,317,6.0,9.0,88,0.00,,,0.00,meteohub,2015-09-02 13:12:00,
2015-09-02 09:17:00,73.9,69.8,30.04,WNW,295,7.0,11.0,87,0.00,,,0.00,meteohub,2015-09-02 13:17:00,
2015-09-02 09:22:00,74.5,69.6,30.04,WNW,300,1.0,11.0,85,0.00,,,0.00,meteohub,2015-09-02 13:22:00,
2015-09-02 09:27:00,74.8,69.6,30.04,WNW,285,5.0,11.0,84,0.00,,,0.00,meteohub,2015-09-02 13:27:00,
2015-09-02 09:32:00,75.0,69.8,30.04,WNW,300,4.0,11.0,84,0.00,,,0.00,meteohub,2015-09-02 13:32:00,
2015-09-02 09:37:00,75.4,69.4,30.04,WNW,295,7.0,11.0,82,0.00,,,0.00,meteohub,2015-09-02 13:37:00,
2015-09-02 09:41:00,75.6,69.3,30.04,WNW,287,1.0,11.0,81,0.00,,,0.00,meteohub,2015-09-02 13:41:00,
2015-09-02 09:42:00,75.6,69.3,30.04,NW,321,9.0,11.0,81,0.00,,,0.00,meteohub,2015-09-02 13:42:00,
2015-09-02 09:46:00,75.7,69.8,30.04,NW,323,5.0,11.0,82,0.00,,,0.00,meteohub,2015-09-02 13:46:00,
2015-09-02 09:51:00,76.1,70.2,30.04,NW,317,8.0,11.0,82,0.00,,,0.00,meteohub,2015-09-02 13:51:00,
2015-09-02 09:57:00,76.5,70.5,30.04,NW,325,7.0,11.0,82,0.00,,,0.00,meteohub,2015-09-02 13:57:00,
2015-09-02 10:02:00,76.3,69.6,30.04,NNW,342,8.0,10.0,80,0.00,,,0.00,meteohub,2015-09-02 14:02:00,
2015-09-02 10:07:00,76.5,69.4,30.03,NW,306,9.0,12.0,79,0.00,,,0.00,meteohub,2015-09-02 14:07:00,
2015-09-02 10:12:00,76.5,69.1,30.03,WNW,292,5.0,12.0,78,0.00,,,0.00,meteohub,2015-09-02 14:12:00,
2015-09-02 10:17:00,76.8,70.2,30.03,NW,322,4.0,12.0,80,0.00,,,0.00,meteohub,2015-09-02 14:17:00,
2015-09-02 10:22:00,77.4,70.0,30.03,WNW,289,6.0,12.0,78,0.00,,,0.00,meteohub,2015-09-02 14:22:00,
2015-09-02 10:27:00,77.5,70.5,30.03,West,273,7.0,10.0,79,0.00,,,0.00,meteohub,2015-09-02 14:27:00,
2015-09-02 10:32:00,77.4,69.6,30.03,NW,308,5.0,10.0,77,0.00,,,0.00,meteohub,2015-09-02 14:32:00,
2015-09-02 10:37:00,77.4,70.0,30.03,NW,315,6.0,10.0,78,0.00,,,0.00,meteohub,2015-09-02 14:37:00,
2015-09-02 10:42:00,77.4,70.0,30.03,NW,304,5.0,11.0,78,0.00,,,0.00,meteohub,2015-09-02 14:42:00,
2015-09-02 10:47:00,77.5,70.5,30.03,WSW,257,4.0,11.0,79,0.00,,,0.00,meteohub,2015-09-02 14:47:00,
2015-09-02 10:52:00,77.9,70.2,30.03,WNW,288,9.0,11.0,77,0.00,,,0.00,meteohub,2015-09-02 14:52:00,
2015-09-02 10:57:00,77.5,69.4,30.03,NW,319,9.0,10.0,76,0.00,,,0.00,meteohub,2015-09-02 14:57:00,
2015-09-02 11:02:00,77.7,70.0,30.02,WNW,294,3.0,12.0,77,0.00,,,0.00,meteohub,2015-09-02 15:02:00,
2015-09-02 11:07:00,78.3,70.0,30.02,WNW,300,6.0,12.0,76,0.00,,,0.00,meteohub,2015-09-02 15:07:00,
2015-09-02 11:12:00,78.4,70.2,30.02,NW,324,6.0,11.0,76,0.00,,,0.00,meteohub,2015-09-02 15:12:00,
2015-09-02 11:17:00,78.4,70.2,30.02,NW,308,5.0,10.0,76,0.00,,,0.00,meteohub,2015-09-02 15:17:00,
2015-09-02 11:22:00,78.6,70.3,30.02,WNW,298,6.0,10.0,76,0.00,,,0.00,meteohub,2015-09-02 15:22:00,
2015-09-02 11:27:00,78.4,70.2,30.01,West,275,8.0,12.0,76,0.00,,,0.00,meteohub,2015-09-02 15:27:00,
2015-09-02 11:32:00,78.4,70.2,30.01,West,279,6.0,12.0,76,0.00,,,0.00,meteohub,2015-09-02 15:32:00,
2015-09-02 11:37:00,78.6,70.3,30.01,WNW,292,3.0,12.0,76,0.00,,,0.00,meteohub,2015-09-02 15:37:00,
2015-09-02 11:42:00,78.6,70.0,30.01,NW,309,5.0,11.0,75,0.00,,,0.00,meteohub,2015-09-02 15:42:00,
2015-09-02 11:47:00,78.4,70.2,30.01,West,275,10.0,11.0,76,0.00,,,0.00,meteohub,2015-09-02 15:47:00,
2015-09-02 11:52:00,78.4,69.8,30.01,West,279,5.0,11.0,75,0.00,,,0.00,meteohub,2015-09-02 15:52:00,
2015-09-02 11:57:00,79.2,70.5,30.01,West,281,6.0,11.0,75,0.00,,,0.00,meteohub,2015-09-02 15:57:00,
2015-09-02 12:02:00,79.3,70.3,30.00,WNW,297,5.0,11.0,74,0.00,,,0.00,meteohub,2015-09-02 16:02:00,
2015-09-02 12:07:00,79.2,70.2,30.00,NW,313,6.0,12.0,74,0.00,,,0.00,meteohub,2015-09-02 16:07:00,
2015-09-02 12:12:00,79.3,70.7,30.00,WNW,286,7.0,12.0,75,0.00,,,0.00,meteohub,2015-09-02 16:12:00,
2015-09-02 12:15:00,79.5,70.2,30.00,NW,317,9.0,12.0,73,0.00,,,0.00,meteohub,2015-09-02 16:15:00,
2015-09-02 12:17:00,79.3,70.0,30.00,NW,314,6.0,12.0,73,0.00,,,0.00,meteohub,2015-09-02 16:17:00,
2015-09-02 12:22:00,79.2,69.8,30.00,West,263,6.0,12.0,73,0.00,,,0.00,meteohub,2015-09-02 16:22:00,
2015-09-02 12:27:00,79.7,70.7,30.00,NW,306,5.0,12.0,74,0.00,,,0.00,meteohub,2015-09-02 16:27:00,
2015-09-02 12:32:00,80.1,70.2,29.99,WNW,299,3.0,12.0,72,0.00,,,0.00,meteohub,2015-09-02 16:32:00,
2015-09-02 12:42:00,80.1,69.8,29.99,NW,326,6.0,12.0,71,0.00,,,0.00,meteohub,2015-09-02 16:42:00,
2015-09-02 12:47:00,79.9,69.6,29.99,West,273,8.0,11.0,71,0.00,,,0.00,meteohub,2015-09-02 16:47:00,
2015-09-02 12:52:00,80.1,69.4,29.99,WNW,299,6.0,11.0,70,0.00,,,0.00,meteohub,2015-09-02 16:52:00,
2015-09-02 12:57:00,80.1,69.4,29.99,WNW,288,6.0,10.0,70,0.00,,,0.00,meteohub,2015-09-02 16:57:00,
2015-09-02 13:02:00,80.2,69.6,29.99,WNW,302,7.0,10.0,70,0.00,,,0.00,meteohub,2015-09-02 17:02:00,
2015-09-02 13:07:00,80.4,69.3,29.98,WNW,290,5.0,9.0,69,0.00,,,0.00,meteohub,2015-09-02 17:07:00,
2015-09-02 13:12:00,80.4,69.3,29.98,WNW,282,5.0,11.0,69,0.00,,,0.00,meteohub,2015-09-02 17:12:00,
2015-09-02 13:17:00,80.6,69.4,29.98,NW,312,3.0,11.0,69,0.00,,,0.00,meteohub,2015-09-02 17:17:00,
2015-09-02 13:22:00,80.4,69.3,29.98,WNW,285,6.0,11.0,69,0.00,,,0.00,meteohub,2015-09-02 17:22:00,
2015-09-02 13:27:00,80.4,68.9,29.97,West,277,4.0,10.0,68,0.00,,,0.00,meteohub,2015-09-02 17:27:00,
2015-09-02 13:32:00,80.4,69.3,29.97,NW,317,2.0,10.0,69,0.00,,,0.00,meteohub,2015-09-02 17:32:00,
2015-09-02 13:37:00,80.4,68.9,29.97,WNW,283,5.0,10.0,68,0.00,,,0.00,meteohub,2015-09-02 17:37:00,
2015-09-02 13:42:00,80.8,68.7,29.97,West,262,5.0,11.0,67,0.00,,,0.00,meteohub,2015-09-02 17:42:00,
2015-09-02 13:47:00,80.4,69.8,29.97,NW,311,3.0,12.0,70,0.00,,,0.00,meteohub,2015-09-02 17:47:00,
2015-09-02 13:52:00,80.4,68.5,29.97,WNW,293,8.0,12.0,67,0.00,,,0.00,meteohub,2015-09-02 17:52:00,
2015-09-02 13:57:00,80.1,68.5,29.97,NW,325,8.0,13.0,68,0.00,,,0.00,meteohub,2015-09-02 17:57:00,
2015-09-02 14:02:00,80.1,68.9,29.97,West,271,8.0,13.0,69,0.00,,,0.00,meteohub,2015-09-02 18:02:00,
2015-09-02 14:07:00,80.2,69.1,29.96,West,274,6.0,13.0,69,0.00,,,0.00,meteohub,2015-09-02 18:07:00,
2015-09-02 14:12:00,80.1,68.2,29.96,NNW,347,9.0,13.0,67,0.00,,,0.00,meteohub,2015-09-02 18:12:00,
2015-09-02 14:17:00,80.1,68.9,29.96,NW,305,4.0,13.0,69,0.00,,,0.00,meteohub,2015-09-02 18:17:00,
2015-09-02 14:22:00,80.1,68.5,29.96,WNW,292,10.0,11.0,68,0.00,,,0.00,meteohub,2015-09-02 18:22:00,
2015-09-02 14:27:00,80.1,68.9,29.96,West,261,7.0,12.0,69,0.00,,,0.00,meteohub,2015-09-02 18:27:00,
2015-09-02 14:32:00,80.2,68.4,29.96,WNW,294,9.0,12.0,67,0.00,,,0.00,meteohub,2015-09-02 18:32:00,
2015-09-02 14:37:00,80.1,68.5,29.96,WNW,301,4.0,12.0,68,0.00,,,0.00,meteohub,2015-09-02 18:37:00,
2015-09-02 14:42:00,80.2,69.1,29.96,NW,306,2.0,12.0,69,0.00,,,0.00,meteohub,2015-09-02 18:42:00,
2015-09-02 14:47:00,80.4,68.9,29.95,WNW,290,9.0,12.0,68,0.00,,,0.00,meteohub,2015-09-02 18:47:00,
2015-09-02 14:52:00,80.6,68.5,29.95,NW,310,3.0,10.0,67,0.00,,,0.00,meteohub,2015-09-02 18:52:00,
2015-09-02 14:57:00,80.4,68.9,29.95,WNW,292,3.0,10.0,68,0.00,,,0.00,meteohub,2015-09-02 18:57:00,
2015-09-02 15:02:00,80.6,69.1,29.95,WNW,293,9.0,10.0,68,0.00,,,0.00,meteohub,2015-09-02 19:02:00,
2015-09-02 15:07:00,80.2,68.7,29.95,WNW,288,3.0,10.0,68,0.00,,,0.00,meteohub,2015-09-02 19:07:00,
2015-09-02 15:12:00,80.1,68.2,29.95,NW,326,3.0,12.0,67,0.00,,,0.00,meteohub,2015-09-02 19:12:00,
2015-09-02 15:17:00,80.1,69.8,29.95,NW,308,4.0,12.0,71,0.00,,,0.00,meteohub,2015-09-02 19:17:00,
2015-09-02 15:22:00,80.2,69.1,29.95,NNW,340,6.0,12.0,69,0.00,,,0.00,meteohub,2015-09-02 19:22:00,
2015-09-02 15:27:00,80.1,68.5,29.94,NW,317,6.0,11.0,68,0.00,,,0.00,meteohub,2015-09-02 19:27:00,
2015-09-02 15:32:00,79.9,68.7,29.94,West,280,11.0,11.0,69,0.00,,,0.00,meteohub,2015-09-02 19:32:00,
2015-09-02 15:37:00,79.7,68.2,29.94,WSW,244,7.0,13.0,68,0.00,,,0.00,meteohub,2015-09-02 19:37:00,
2015-09-02 15:42:00,79.5,68.0,29.94,WNW,295,3.0,13.0,68,0.00,,,0.00,meteohub,2015-09-02 19:42:00,
2015-09-02 15:47:00,79.3,67.8,29.94,NW,310,5.0,13.0,68,0.00,,,0.00,meteohub,2015-09-02 19:47:00,
2015-09-02 15:52:00,79.2,67.6,29.94,WNW,303,8.0,11.0,68,0.00,,,0.00,meteohub,2015-09-02 19:52:00,
2015-09-02 15:57:00,79.0,67.5,29.93,NW,321,10.0,11.0,68,0.00,,,0.00,meteohub,2015-09-02 19:57:00,
2015-09-02 16:02:00,78.6,67.6,29.93,NW,315,4.0,11.0,69,0.00,,,0.00,meteohub,2015-09-02 20:02:00,
2015-09-02 16:07:00,78.6,67.6,29.93,NNW,328,7.0,11.0,69,0.00,,,0.00,meteohub,2015-09-02 20:07:00,
2015-09-02 16:12:00,78.6,67.6,29.93,WNW,301,3.0,11.0,69,0.00,,,0.00,meteohub,2015-09-02 20:12:00,
2015-09-02 16:17:00,78.6,67.6,29.93,NNW,328,7.0,12.0,69,0.00,,,0.00,meteohub,2015-09-02 20:17:00,
2015-09-02 16:22:00,78.8,67.3,29.93,NW,313,2.0,12.0,68,0.00,,,0.00,meteohub,2015-09-02 20:22:00,
2015-09-02 16:27:00,78.6,66.7,29.93,WNW,292,7.0,11.0,67,0.00,,,0.00,meteohub,2015-09-02 20:27:00,
2015-09-02 16:32:00,78.4,66.9,29.93,West,275,8.0,12.0,68,0.00,,,0.00,meteohub,2015-09-02 20:32:00,
2015-09-02 16:37:00,78.3,66.7,29.93,WNW,302,5.0,12.0,68,0.00,,,0.00,meteohub,2015-09-02 20:37:00,
2015-09-02 16:42:00,78.3,66.7,29.93,NW,312,8.0,12.0,68,0.00,,,0.00,meteohub,2015-09-02 20:42:00,
2015-09-02 16:47:00,78.3,66.4,29.93,West,278,4.0,12.0,67,0.00,,,0.00,meteohub,2015-09-02 20:47:00,
2015-09-02 16:52:00,78.3,66.7,29.93,NNW,348,6.0,11.0,68,0.00,,,0.00,meteohub,2015-09-02 20:52:00,
2015-09-02 16:57:00,78.1,66.7,29.92,NW,304,7.0,11.0,68,0.00,,,0.00,meteohub,2015-09-02 20:57:00,
2015-09-02 17:02:00,78.1,66.2,29.92,WNW,290,2.0,10.0,67,0.00,,,0.00,meteohub,2015-09-02 21:02:00,
2015-09-02 17:07:00,77.9,66.0,29.92,NW,324,2.0,10.0,67,0.00,,,0.00,meteohub,2015-09-02 21:07:00,
2015-09-02 17:12:00,77.7,65.8,29.92,NNW,329,3.0,10.0,67,0.00,,,0.00,meteohub,2015-09-02 21:12:00,
2015-09-02 17:17:00,77.7,65.5,29.92,NW,323,9.0,11.0,66,0.00,,,0.00,meteohub,2015-09-02 21:17:00,
2015-09-02 17:22:00,77.5,65.3,29.92,WNW,294,7.0,11.0,66,0.00,,,0.00,meteohub,2015-09-02 21:22:00,
2015-09-02 17:27:00,77.4,64.8,29.91,WNW,282,3.0,11.0,65,0.00,,,0.00,meteohub,2015-09-02 21:27:00,
2015-09-02 17:32:00,77.2,64.9,29.91,WNW,282,7.0,10.0,66,0.00,,,0.00,meteohub,2015-09-02 21:32:00,
2015-09-02 17:37:00,76.8,64.2,29.91,NW,315,3.0,10.0,65,0.00,,,0.00,meteohub,2015-09-02 21:37:00,
2015-09-02 17:42:00,76.6,64.4,29.91,NNW,329,3.0,10.0,66,0.00,,,0.00,meteohub,2015-09-02 21:42:00,
2015-09-02 17:47:00,76.5,64.2,29.91,WNW,290,4.0,11.0,66,0.00,,,0.00,meteohub,2015-09-02 21:47:00,
2015-09-02 17:52:00,76.3,64.6,29.91,NW,317,5.0,11.0,67,0.00,,,0.00,meteohub,2015-09-02 21:52:00,
2015-09-02 17:57:00,76.1,64.8,29.91,NW,323,5.0,9.0,68,0.00,,,0.00,meteohub,2015-09-02 21:57:00,
2015-09-02 18:02:00,75.9,64.6,29.91,WNW,295,2.0,9.0,68,0.00,,,0.00,meteohub,2015-09-02 22:02:00,
2015-09-02 18:10:00,75.7,64.8,29.91,NW,320,5.0,9.0,69,0.00,,,0.00,meteohub,2015-09-02 22:10:00,
2015-09-02 18:15:00,75.6,65.1,29.91,NW,315,6.0,9.0,70,0.00,,,0.00,meteohub,2015-09-02 22:15:00,
2015-09-02 18:20:00,75.4,65.3,29.91,NW,306,3.0,8.0,71,0.00,,,0.00,meteohub,2015-09-02 22:20:00,
2015-09-02 18:25:00,75.2,65.1,29.91,NNW,333,6.0,9.0,71,0.00,,,0.00,meteohub,2015-09-02 22:25:00,
2015-09-02 18:30:00,75.0,65.3,29.91,WNW,296,6.0,10.0,72,0.00,,,0.00,meteohub,2015-09-02 22:30:00,
2015-09-02 18:35:00,74.8,65.1,29.91,WNW,303,5.0,10.0,72,0.00,,,0.00,meteohub,2015-09-02 22:35:00,